sensor_id;sensor_type;location;lat;lon;timestamp;temperature;humidity
3194;DHT22;1608;50.860;13.466;2022-12-05T00:01:17;7.50;99.90
3194;DHT22;1608;50.860;13.466;2022-12-05T00:03:45;7.50;99.90
3194;DHT22;1608;50.860;13.466;2022-12-05T00:06:12;7.60;99.90
3194;DHT22;1608;50.860;13.466;2022-12-05T00:08:39;7.40;99.90
3194;DHT22;1608;50.860;13.466;2022-12-05T00:11:10;7.30;99.90
3194;DHT22;1608;50.860;13.466;2022-12-05T00:13:39;7.30;99.90
3194;DHT22;1608;50.860;13.466;2022-12-05T00:16:07;7.40;99.90
3194;DHT22;1608;50.860;13.466;2022-12-05T00:18:34;7.40;99.90
3194;DHT22;1608;50.860;13.466;2022-12-05T00:21:01;7.30;99.90
3194;DHT22;1608;50.860;13.466;2022-12-05T00:23:28;7.40;99.90
3194;DHT22;1608;50.860;13.466;2022-12-05T00:25:55;7.40;99.90
3194;DHT22;1608;50.860;13.466;2022-12-05T00:28:22;7.30;99.90
3194;DHT22;1608;50.860;13.466;2022-12-05T00:30:50;7.30;99.90
3194;DHT22;1608;50.860;13.466;2022-12-05T00:33:17;7.40;99.90
3194;DHT22;1608;50.860;13.466;2022-12-05T00:35:43;7.50;99.90
3194;DHT22;1608;50.860;13.466;2022-12-05T00:38:10;7.60;99.90
3194;DHT22;1608;50.860;13.466;2022-12-05T00:40:37;7.60;99.90
3194;DHT22;1608;50.860;13.466;2022-12-05T00:43:04;7.60;99.90
3194;DHT22;1608;50.860;13.466;2022-12-05T00:45:32;7.60;99.90
3194;DHT22;1608;50.860;13.466;2022-12-05T00:48:00;7.60;99.90
3194;DHT22;1608;50.860;13.466;2022-12-05T00:50:27;7.60;99.90
3194;DHT22;1608;50.860;13.466;2022-12-05T00:52:53;7.60;99.90
3194;DHT22;1608;50.860;13.466;2022-12-05T00:55:20;7.70;99.90
3194;DHT22;1608;50.860;13.466;2022-12-05T00:57:47;7.70;99.90
3194;DHT22;1608;50.860;13.466;2022-12-05T01:00:15;7.70;99.90
3194;DHT22;1608;50.860;13.466;2022-12-05T01:02:42;7.80;99.90
3194;DHT22;1608;50.860;13.466;2022-12-05T01:05:10;7.80;99.90
3194;DHT22;1608;50.860;13.466;2022-12-05T01:07:37;7.80;99.90
3194;DHT22;1608;50.860;13.466;2022-12-05T01:10:05;7.80;99.90
3194;DHT22;1608;50.860;13.466;2022-12-05T01:12:32;7.80;99.90
3194;DHT22;1608;50.860;13.466;2022-12-05T01:14:59;7.80;99.90
3194;DHT22;1608;50.860;13.466;2022-12-05T01:17:26;7.80;99.90
3194;DHT22;1608;50.860;13.466;2022-12-05T01:19:53;7.80;99.90
3194;DHT22;1608;50.860;13.466;2022-12-05T01:22:21;7.80;99.90
3194;DHT22;1608;50.860;13.466;2022-12-05T01:24:47;7.80;99.90
3194;DHT22;1608;50.860;13.466;2022-12-05T01:27:14;7.90;99.90
3194;DHT22;1608;50.860;13.466;2022-12-05T01:29:41;7.90;99.90
3194;DHT22;1608;50.860;13.466;2022-12-05T01:32:08;7.90;99.90
3194;DHT22;1608;50.860;13.466;2022-12-05T01:34:35;7.90;99.90
3194;DHT22;1608;50.860;13.466;2022-12-05T01:37:01;7.80;99.90
3194;DHT22;1608;50.860;13.466;2022-12-05T01:39:30;7.80;99.90
3194;DHT22;1608;50.860;13.466;2022-12-05T01:41:56;7.80;99.90
3194;DHT22;1608;50.860;13.466;2022-12-05T01:44:59;7.80;99.90
3194;DHT22;1608;50.860;13.466;2022-12-05T01:47:27;7.80;99.90
3194;DHT22;1608;50.860;13.466;2022-12-05T01:49:56;7.80;99.90
3194;DHT22;1608;50.860;13.466;2022-12-05T01:52:26;7.80;99.90
3194;DHT22;1608;50.860;13.466;2022-12-05T01:54:57;7.90;99.90
3194;DHT22;1608;50.860;13.466;2022-12-05T01:57:25;8.00;99.90
3194;DHT22;1608;50.860;13.466;2022-12-05T01:59:54;7.90;99.90
3194;DHT22;1608;50.860;13.466;2022-12-05T02:02:23;7.90;99.90
3194;DHT22;1608;50.860;13.466;2022-12-05T02:04:57;7.90;99.90
3194;DHT22;1608;50.860;13.466;2022-12-05T02:07:24;8.00;99.90
3194;DHT22;1608;50.860;13.466;2022-12-05T02:09:51;8.00;99.90
3194;DHT22;1608;50.860;13.466;2022-12-05T02:12:19;8.00;99.90
3194;DHT22;1608;50.860;13.466;2022-12-05T02:15:01;7.90;99.90
3194;DHT22;1608;50.860;13.466;2022-12-05T02:17:35;7.90;99.90
3194;DHT22;1608;50.860;13.466;2022-12-05T02:20:12;7.80;99.90
3194;DHT22;1608;50.860;13.466;2022-12-05T02:28:32;7.90;99.90
3194;DHT22;1608;50.860;13.466;2022-12-05T02:31:07;7.90;99.90
3194;DHT22;1608;50.860;13.466;2022-12-05T02:33:39;7.90;99.90
3194;DHT22;1608;50.860;13.466;2022-12-05T02:36:12;8.00;99.90
3194;DHT22;1608;50.860;13.466;2022-12-05T02:38:47;8.00;99.90
3194;DHT22;1608;50.860;13.466;2022-12-05T02:41:20;8.10;99.90
3194;DHT22;1608;50.860;13.466;2022-12-05T02:43:53;8.10;99.90
3194;DHT22;1608;50.860;13.466;2022-12-05T02:46:26;8.20;99.90
3194;DHT22;1608;50.860;13.466;2022-12-05T02:48:57;8.20;99.90
3194;DHT22;1608;50.860;13.466;2022-12-05T02:51:30;8.30;99.90
3194;DHT22;1608;50.860;13.466;2022-12-05T02:54:01;8.30;99.90
3194;DHT22;1608;50.860;13.466;2022-12-05T02:56:31;8.30;99.90
3194;DHT22;1608;50.860;13.466;2022-12-05T02:58:59;8.20;99.90
3194;DHT22;1608;50.860;13.466;2022-12-05T03:01:29;8.10;99.90
3194;DHT22;1608;50.860;13.466;2022-12-05T03:03:59;8.10;99.90
3194;DHT22;1608;50.860;13.466;2022-12-05T03:06:29;8.10;99.90
3194;DHT22;1608;50.860;13.466;2022-12-05T03:09:00;8.00;99.90
3194;DHT22;1608;50.860;13.466;2022-12-05T03:11:31;8.10;99.90
3194;DHT22;1608;50.860;13.466;2022-12-05T03:14:02;8.10;99.90
3194;DHT22;1608;50.860;13.466;2022-12-05T03:16:35;8.10;99.90
3194;DHT22;1608;50.860;13.466;2022-12-05T03:19:09;8.10;99.90
3194;DHT22;1608;50.860;13.466;2022-12-05T03:21:42;8.10;99.90
3194;DHT22;1608;50.860;13.466;2022-12-05T03:24:14;8.10;99.90
3194;DHT22;1608;50.860;13.466;2022-12-05T03:26:49;8.10;99.90
3194;DHT22;1608;50.860;13.466;2022-12-05T03:29:24;8.10;99.90
3194;DHT22;1608;50.860;13.466;2022-12-05T03:32:00;8.10;99.90
3194;DHT22;1608;50.860;13.466;2022-12-05T03:34:39;8.10;99.90
3194;DHT22;1608;50.860;13.466;2022-12-05T03:37:13;8.10;99.90
3194;DHT22;1608;50.860;13.466;2022-12-05T03:39:44;8.10;99.90
3194;DHT22;1608;50.860;13.466;2022-12-05T03:42:18;8.20;99.90
3194;DHT22;1608;50.860;13.466;2022-12-05T03:44:49;8.20;99.90
3194;DHT22;1608;50.860;13.466;2022-12-05T03:47:24;8.30;99.90
3194;DHT22;1608;50.860;13.466;2022-12-05T03:49:55;8.30;99.90
3194;DHT22;1608;50.860;13.466;2022-12-05T03:52:28;8.40;99.90
3194;DHT22;1608;50.860;13.466;2022-12-05T03:55:00;8.50;99.90
3194;DHT22;1608;50.860;13.466;2022-12-05T03:57:32;8.50;99.90
3194;DHT22;1608;50.860;13.466;2022-12-05T04:00:03;8.50;99.90
3194;DHT22;1608;50.860;13.466;2022-12-05T04:02:36;8.40;99.90
3194;DHT22;1608;50.860;13.466;2022-12-05T04:05:17;8.40;99.90
3194;DHT22;1608;50.860;13.466;2022-12-05T04:07:46;8.40;99.90
3194;DHT22;1608;50.860;13.466;2022-12-05T04:10:17;8.30;99.90
3194;DHT22;1608;50.860;13.466;2022-12-05T04:12:46;8.30;99.90
3194;DHT22;1608;50.860;13.466;2022-12-05T04:15:18;8.30;99.90
3194;DHT22;1608;50.860;13.466;2022-12-05T04:17:53;8.30;99.90
3194;DHT22;1608;50.860;13.466;2022-12-05T04:20:25;8.40;99.90
3194;DHT22;1608;50.860;13.466;2022-12-05T04:23:11;8.30;99.90
3194;DHT22;1608;50.860;13.466;2022-12-05T04:25:47;8.30;99.90
3194;DHT22;1608;50.860;13.466;2022-12-05T04:28:23;8.40;99.90
3194;DHT22;1608;50.860;13.466;2022-12-05T04:30:57;8.40;99.90
3194;DHT22;1608;50.860;13.466;2022-12-05T04:33:34;8.40;99.90
3194;DHT22;1608;50.860;13.466;2022-12-05T04:36:06;8.40;99.90
3194;DHT22;1608;50.860;13.466;2022-12-05T04:38:40;8.40;99.90
3194;DHT22;1608;50.860;13.466;2022-12-05T04:41:11;8.40;99.90
3194;DHT22;1608;50.860;13.466;2022-12-05T04:43:41;8.30;99.90
3194;DHT22;1608;50.860;13.466;2022-12-05T04:46:11;8.30;99.90
3194;DHT22;1608;50.860;13.466;2022-12-05T04:48:43;8.30;99.90
3194;DHT22;1608;50.860;13.466;2022-12-05T04:51:16;8.30;99.90
3194;DHT22;1608;50.860;13.466;2022-12-05T04:53:45;8.20;99.90
3194;DHT22;1608;50.860;13.466;2022-12-05T04:56:15;8.20;99.90
3194;DHT22;1608;50.860;13.466;2022-12-05T04:58:43;8.30;99.90
3194;DHT22;1608;50.860;13.466;2022-12-05T05:01:13;8.30;99.90
3194;DHT22;1608;50.860;13.466;2022-12-05T05:03:44;8.20;99.90
3194;DHT22;1608;50.860;13.466;2022-12-05T05:06:14;8.20;99.90
3194;DHT22;1608;50.860;13.466;2022-12-05T05:08:47;8.10;99.90
3194;DHT22;1608;50.860;13.466;2022-12-05T05:11:17;8.10;99.90
3194;DHT22;1608;50.860;13.466;2022-12-05T05:13:44;8.20;99.90
3194;DHT22;1608;50.860;13.466;2022-12-05T05:16:14;8.20;99.90
3194;DHT22;1608;50.860;13.466;2022-12-05T05:18:44;8.20;99.90
3194;DHT22;1608;50.860;13.466;2022-12-05T05:21:16;8.20;99.90
3194;DHT22;1608;50.860;13.466;2022-12-05T05:23:44;8.20;99.90
3194;DHT22;1608;50.860;13.466;2022-12-05T05:26:11;8.20;99.90
3194;DHT22;1608;50.860;13.466;2022-12-05T05:28:38;8.20;99.90
3194;DHT22;1608;50.860;13.466;2022-12-05T05:31:06;8.10;99.90
3194;DHT22;1608;50.860;13.466;2022-12-05T05:33:33;8.20;99.90
3194;DHT22;1608;50.860;13.466;2022-12-05T05:36:06;8.20;99.90
3194;DHT22;1608;50.860;13.466;2022-12-05T05:38:35;8.20;99.90
3194;DHT22;1608;50.860;13.466;2022-12-05T05:41:02;8.20;99.90
3194;DHT22;1608;50.860;13.466;2022-12-05T05:43:29;8.30;99.90
3194;DHT22;1608;50.860;13.466;2022-12-05T05:45:56;8.40;99.90
3194;DHT22;1608;50.860;13.466;2022-12-05T05:48:23;8.40;99.90
3194;DHT22;1608;50.860;13.466;2022-12-05T05:50:50;8.50;99.90
3194;DHT22;1608;50.860;13.466;2022-12-05T05:53:18;8.40;99.90
3194;DHT22;1608;50.860;13.466;2022-12-05T05:55:45;8.50;99.90
3194;DHT22;1608;50.860;13.466;2022-12-05T05:58:12;8.50;99.90
3194;DHT22;1608;50.860;13.466;2022-12-05T06:00:38;8.60;99.90
3194;DHT22;1608;50.860;13.466;2022-12-05T06:03:05;8.40;99.90
3194;DHT22;1608;50.860;13.466;2022-12-05T06:05:32;8.40;99.90
3194;DHT22;1608;50.860;13.466;2022-12-05T06:07:59;8.40;99.90
3194;DHT22;1608;50.860;13.466;2022-12-05T06:10:27;8.50;99.90
3194;DHT22;1608;50.860;13.466;2022-12-05T06:12:54;8.50;99.90
3194;DHT22;1608;50.860;13.466;2022-12-05T06:15:21;8.50;99.90
3194;DHT22;1608;50.860;13.466;2022-12-05T06:17:48;8.50;99.90
3194;DHT22;1608;50.860;13.466;2022-12-05T06:20:15;8.60;99.90
3194;DHT22;1608;50.860;13.466;2022-12-05T06:22:42;8.60;99.90
3194;DHT22;1608;50.860;13.466;2022-12-05T06:25:09;8.70;99.90
3194;DHT22;1608;50.860;13.466;2022-12-05T06:27:37;8.70;99.90
3194;DHT22;1608;50.860;13.466;2022-12-05T06:30:05;8.60;99.90
3194;DHT22;1608;50.860;13.466;2022-12-05T06:32:32;8.60;99.90
3194;DHT22;1608;50.860;13.466;2022-12-05T06:34:59;8.50;99.90
3194;DHT22;1608;50.860;13.466;2022-12-05T06:37:35;8.40;99.90
3194;DHT22;1608;50.860;13.466;2022-12-05T06:40:03;8.40;99.90
3194;DHT22;1608;50.860;13.466;2022-12-05T06:42:30;8.30;99.90
3194;DHT22;1608;50.860;13.466;2022-12-05T06:44:58;8.20;99.90
3194;DHT22;1608;50.860;13.466;2022-12-05T06:47:25;8.20;99.90
3194;DHT22;1608;50.860;13.466;2022-12-05T06:49:52;8.20;99.90
3194;DHT22;1608;50.860;13.466;2022-12-05T06:52:18;8.20;99.90
3194;DHT22;1608;50.860;13.466;2022-12-05T06:54:45;8.30;99.90
3194;DHT22;1608;50.860;13.466;2022-12-05T06:57:12;8.40;99.90
3194;DHT22;1608;50.860;13.466;2022-12-05T06:59:39;8.40;99.90
3194;DHT22;1608;50.860;13.466;2022-12-05T07:02:09;8.40;99.90
3194;DHT22;1608;50.860;13.466;2022-12-05T07:04:35;8.40;99.90
3194;DHT22;1608;50.860;13.466;2022-12-05T07:07:02;8.30;99.90
3194;DHT22;1608;50.860;13.466;2022-12-05T07:09:29;8.30;99.90
3194;DHT22;1608;50.860;13.466;2022-12-05T07:12:25;8.40;99.90
3194;DHT22;1608;50.860;13.466;2022-12-05T07:14:52;8.40;99.90
3194;DHT22;1608;50.860;13.466;2022-12-05T07:17:19;8.40;99.90
3194;DHT22;1608;50.860;13.466;2022-12-05T07:19:47;8.40;99.90
3194;DHT22;1608;50.860;13.466;2022-12-05T07:22:15;8.40;99.90
3194;DHT22;1608;50.860;13.466;2022-12-05T07:24:42;8.40;99.90
3194;DHT22;1608;50.860;13.466;2022-12-05T07:27:09;8.30;99.90
3194;DHT22;1608;50.860;13.466;2022-12-05T07:29:37;8.30;99.90
3194;DHT22;1608;50.860;13.466;2022-12-05T07:32:04;8.30;99.90
3194;DHT22;1608;50.860;13.466;2022-12-05T07:34:31;8.30;99.90
3194;DHT22;1608;50.860;13.466;2022-12-05T07:36:59;8.30;99.90
3194;DHT22;1608;50.860;13.466;2022-12-05T07:39:26;8.20;99.90
3194;DHT22;1608;50.860;13.466;2022-12-05T07:41:53;8.20;99.90
3194;DHT22;1608;50.860;13.466;2022-12-05T07:44:19;8.20;99.90
3194;DHT22;1608;50.860;13.466;2022-12-05T07:46:47;8.20;99.90
3194;DHT22;1608;50.860;13.466;2022-12-05T07:49:14;8.30;99.90
3194;DHT22;1608;50.860;13.466;2022-12-05T07:51:41;8.30;99.90
3194;DHT22;1608;50.860;13.466;2022-12-05T07:54:08;8.40;99.90
3194;DHT22;1608;50.860;13.466;2022-12-05T07:56:35;8.50;99.90
3194;DHT22;1608;50.860;13.466;2022-12-05T07:59:01;8.50;99.90
3194;DHT22;1608;50.860;13.466;2022-12-05T08:01:29;8.40;99.90
3194;DHT22;1608;50.860;13.466;2022-12-05T08:03:58;8.50;99.90
3194;DHT22;1608;50.860;13.466;2022-12-05T08:06:27;8.50;99.90
3194;DHT22;1608;50.860;13.466;2022-12-05T08:08:55;8.50;99.90
3194;DHT22;1608;50.860;13.466;2022-12-05T08:11:23;8.50;99.90
3194;DHT22;1608;50.860;13.466;2022-12-05T08:13:52;8.50;99.90
3194;DHT22;1608;50.860;13.466;2022-12-05T08:16:20;8.40;99.90
3194;DHT22;1608;50.860;13.466;2022-12-05T08:18:48;8.40;99.90
3194;DHT22;1608;50.860;13.466;2022-12-05T08:21:18;8.50;99.90
3194;DHT22;1608;50.860;13.466;2022-12-05T08:23:45;8.60;99.90
3194;DHT22;1608;50.860;13.466;2022-12-05T08:26:14;8.60;99.90
3194;DHT22;1608;50.860;13.466;2022-12-05T08:28:42;8.70;99.90
3194;DHT22;1608;50.860;13.466;2022-12-05T08:31:10;8.70;99.90
3194;DHT22;1608;50.860;13.466;2022-12-05T08:33:38;8.70;99.90
3194;DHT22;1608;50.860;13.466;2022-12-05T08:36:06;8.80;99.90
3194;DHT22;1608;50.860;13.466;2022-12-05T08:38:35;8.80;99.90
3194;DHT22;1608;50.860;13.466;2022-12-05T08:41:03;8.90;99.90
3194;DHT22;1608;50.860;13.466;2022-12-05T08:43:30;8.90;99.90
3194;DHT22;1608;50.860;13.466;2022-12-05T08:45:58;8.90;99.90
3194;DHT22;1608;50.860;13.466;2022-12-05T08:48:26;8.90;99.90
3194;DHT22;1608;50.860;13.466;2022-12-05T08:50:53;6.90;99.90
3194;DHT22;1608;50.860;13.466;2022-12-05T08:53:20;8.90;99.90
3194;DHT22;1608;50.860;13.466;2022-12-05T08:55:49;8.90;99.90
3194;DHT22;1608;50.860;13.466;2022-12-05T08:58:15;8.80;99.90
3194;DHT22;1608;50.860;13.466;2022-12-05T09:00:42;8.80;99.90
3194;DHT22;1608;50.860;13.466;2022-12-05T09:03:10;8.90;99.90
3194;DHT22;1608;50.860;13.466;2022-12-05T09:05:37;8.80;99.90
3194;DHT22;1608;50.860;13.466;2022-12-05T09:08:04;8.80;99.90
3194;DHT22;1608;50.860;13.466;2022-12-05T09:10:31;8.80;99.90
3194;DHT22;1608;50.860;13.466;2022-12-05T09:12:59;8.70;99.90
3194;DHT22;1608;50.860;13.466;2022-12-05T09:15:26;8.60;99.90
3194;DHT22;1608;50.860;13.466;2022-12-05T09:17:53;8.60;99.90
3194;DHT22;1608;50.860;13.466;2022-12-05T09:20:20;8.50;99.90
3194;DHT22;1608;50.860;13.466;2022-12-05T09:22:46;8.60;99.90
3194;DHT22;1608;50.860;13.466;2022-12-05T09:25:13;8.60;99.90
3194;DHT22;1608;50.860;13.466;2022-12-05T09:27:40;8.50;99.90
3194;DHT22;1608;50.860;13.466;2022-12-05T09:30:09;8.50;99.90
3194;DHT22;1608;50.860;13.466;2022-12-05T09:32:36;8.50;99.90
3194;DHT22;1608;50.860;13.466;2022-12-05T09:35:03;8.50;99.90
3194;DHT22;1608;50.860;13.466;2022-12-05T09:37:30;8.70;99.90
3194;DHT22;1608;50.860;13.466;2022-12-05T09:39:57;8.90;99.90
3194;DHT22;1608;50.860;13.466;2022-12-05T09:42:36;8.70;99.90
3194;DHT22;1608;50.860;13.466;2022-12-05T09:45:16;8.70;99.90
3194;DHT22;1608;50.860;13.466;2022-12-05T09:47:52;8.80;99.90
3194;DHT22;1608;50.860;13.466;2022-12-05T09:50:22;8.80;99.90
3194;DHT22;1608;50.860;13.466;2022-12-05T09:52:59;8.80;99.90
3194;DHT22;1608;50.860;13.466;2022-12-05T09:55:32;8.80;99.90
3194;DHT22;1608;50.860;13.466;2022-12-05T09:58:01;8.80;99.90
3194;DHT22;1608;50.860;13.466;2022-12-05T10:00:31;8.80;99.90
3194;DHT22;1608;50.860;13.466;2022-12-05T10:03:20;8.70;99.90
3194;DHT22;1608;50.860;13.466;2022-12-05T10:05:53;8.60;99.90
3194;DHT22;1608;50.860;13.466;2022-12-05T10:08:27;8.50;99.90
3194;DHT22;1608;50.860;13.466;2022-12-05T10:11:00;8.50;99.90
3194;DHT22;1608;50.860;13.466;2022-12-05T10:13:44;8.50;99.90
3194;DHT22;1608;50.860;13.466;2022-12-05T10:16:18;8.50;99.90
3194;DHT22;1608;50.860;13.466;2022-12-05T10:18:52;8.50;99.90
3194;DHT22;1608;50.860;13.466;2022-12-05T10:21:26;8.40;99.90
3194;DHT22;1608;50.860;13.466;2022-12-05T10:23:57;8.50;99.90
3194;DHT22;1608;50.860;13.466;2022-12-05T10:26:27;8.50;99.90
3194;DHT22;1608;50.860;13.466;2022-12-05T10:29:00;8.50;99.90
3194;DHT22;1608;50.860;13.466;2022-12-05T10:31:32;8.60;99.90
3194;DHT22;1608;50.860;13.466;2022-12-05T10:34:03;8.70;99.90
3194;DHT22;1608;50.860;13.466;2022-12-05T10:36:32;8.80;99.90
3194;DHT22;1608;50.860;13.466;2022-12-05T10:38:59;9.00;99.90
3194;DHT22;1608;50.860;13.466;2022-12-05T10:41:26;9.10;99.90
3194;DHT22;1608;50.860;13.466;2022-12-05T10:43:55;9.00;99.90
3194;DHT22;1608;50.860;13.466;2022-12-05T10:46:24;9.00;99.90
3194;DHT22;1608;50.860;13.466;2022-12-05T10:48:52;8.80;99.90
3194;DHT22;1608;50.860;13.466;2022-12-05T10:51:24;8.80;99.90
3194;DHT22;1608;50.860;13.466;2022-12-05T10:53:52;8.80;99.90
3194;DHT22;1608;50.860;13.466;2022-12-05T10:56:40;8.70;99.90
3194;DHT22;1608;50.860;13.466;2022-12-05T10:59:09;8.70;99.90
3194;DHT22;1608;50.860;13.466;2022-12-05T11:01:37;8.70;99.90
3194;DHT22;1608;50.860;13.466;2022-12-05T11:04:16;8.60;99.90
3194;DHT22;1608;50.860;13.466;2022-12-05T11:06:50;8.60;99.90
3194;DHT22;1608;50.860;13.466;2022-12-05T11:09:19;8.60;99.90
3194;DHT22;1608;50.860;13.466;2022-12-05T11:12:00;8.60;99.90
3194;DHT22;1608;50.860;13.466;2022-12-05T11:14:28;9.50;99.90
3194;DHT22;1608;50.860;13.466;2022-12-05T11:16:57;8.60;99.90
3194;DHT22;1608;50.860;13.466;2022-12-05T11:19:28;8.50;99.90
3194;DHT22;1608;50.860;13.466;2022-12-05T11:21:56;8.50;99.90
3194;DHT22;1608;50.860;13.466;2022-12-05T11:24:26;8.60;99.90
3194;DHT22;1608;50.860;13.466;2022-12-05T11:26:54;8.70;99.90
3194;DHT22;1608;50.860;13.466;2022-12-05T11:29:32;8.70;99.90
3194;DHT22;1608;50.860;13.466;2022-12-05T11:32:00;8.60;99.90
3194;DHT22;1608;50.860;13.466;2022-12-05T11:34:34;8.60;99.90
3194;DHT22;1608;50.860;13.466;2022-12-05T11:37:08;8.70;99.90
3194;DHT22;1608;50.860;13.466;2022-12-05T11:39:36;8.70;99.90
3194;DHT22;1608;50.860;13.466;2022-12-05T11:42:18;8.70;99.90
3194;DHT22;1608;50.860;13.466;2022-12-05T11:51:13;9.00;99.90
3194;DHT22;1608;50.860;13.466;2022-12-05T11:53:58;9.00;99.90
3194;DHT22;1608;50.860;13.466;2022-12-05T11:56:35;9.00;99.90
3194;DHT22;1608;50.860;13.466;2022-12-05T11:59:16;8.90;99.90
3194;DHT22;1608;50.860;13.466;2022-12-05T12:01:56;8.90;99.90
3194;DHT22;1608;50.860;13.466;2022-12-05T12:04:33;8.80;99.90
3194;DHT22;1608;50.860;13.466;2022-12-05T12:07:17;8.80;99.90
3194;DHT22;1608;50.860;13.466;2022-12-05T12:09:55;8.80;99.90
3194;DHT22;1608;50.860;13.466;2022-12-05T12:12:27;8.70;99.90
3194;DHT22;1608;50.860;13.466;2022-12-05T12:15:12;8.80;99.90
3194;DHT22;1608;50.860;13.466;2022-12-05T12:17:48;8.80;99.90
3194;DHT22;1608;50.860;13.466;2022-12-05T12:20:39;8.80;99.90
3194;DHT22;1608;50.860;13.466;2022-12-05T12:23:33;8.90;99.90
3194;DHT22;1608;50.860;13.466;2022-12-05T12:26:10;8.90;99.90
3194;DHT22;1608;50.860;13.466;2022-12-05T12:28:42;9.00;99.90
3194;DHT22;1608;50.860;13.466;2022-12-05T12:31:39;9.00;99.90
3194;DHT22;1608;50.860;13.466;2022-12-05T12:34:28;9.00;99.90
3194;DHT22;1608;50.860;13.466;2022-12-05T12:37:02;9.00;99.90
3194;DHT22;1608;50.860;13.466;2022-12-05T12:39:41;9.10;99.90
3194;DHT22;1608;50.860;13.466;2022-12-05T12:42:19;9.10;99.90
3194;DHT22;1608;50.860;13.466;2022-12-05T12:48:08;9.20;99.90
3194;DHT22;1608;50.860;13.466;2022-12-05T12:50:40;9.30;99.90
3194;DHT22;1608;50.860;13.466;2022-12-05T12:53:30;9.40;99.90
3194;DHT22;1608;50.860;13.466;2022-12-05T12:56:08;9.40;99.90
3194;DHT22;1608;50.860;13.466;2022-12-05T12:58:46;9.40;99.90
3194;DHT22;1608;50.860;13.466;2022-12-05T13:01:24;9.40;99.90
3194;DHT22;1608;50.860;13.466;2022-12-05T13:03:57;9.30;99.90
3194;DHT22;1608;50.860;13.466;2022-12-05T13:06:30;9.40;99.90
3194;DHT22;1608;50.860;13.466;2022-12-05T13:09:01;9.30;99.90
3194;DHT22;1608;50.860;13.466;2022-12-05T13:11:34;9.30;99.90
3194;DHT22;1608;50.860;13.466;2022-12-05T13:14:02;9.30;99.90
3194;DHT22;1608;50.860;13.466;2022-12-05T13:16:34;9.30;99.90
3194;DHT22;1608;50.860;13.466;2022-12-05T13:19:05;9.40;99.90
3194;DHT22;1608;50.860;13.466;2022-12-05T13:21:32;9.40;99.90
3194;DHT22;1608;50.860;13.466;2022-12-05T13:24:00;9.40;99.90
3194;DHT22;1608;50.860;13.466;2022-12-05T13:26:29;9.50;99.90
3194;DHT22;1608;50.860;13.466;2022-12-05T13:28:59;9.60;99.90
3194;DHT22;1608;50.860;13.466;2022-12-05T13:31:38;9.60;99.90
3194;DHT22;1608;50.860;13.466;2022-12-05T13:34:05;9.60;99.90
3194;DHT22;1608;50.860;13.466;2022-12-05T13:36:53;9.70;99.90
3194;DHT22;1608;50.860;13.466;2022-12-05T13:39:37;9.70;99.90
3194;DHT22;1608;50.860;13.466;2022-12-05T13:42:25;9.70;99.90
3194;DHT22;1608;50.860;13.466;2022-12-05T13:44:56;9.70;99.90
3194;DHT22;1608;50.860;13.466;2022-12-05T13:47:31;9.70;99.90
3194;DHT22;1608;50.860;13.466;2022-12-05T13:50:06;9.70;99.90
3194;DHT22;1608;50.860;13.466;2022-12-05T13:52:40;9.70;99.90
3194;DHT22;1608;50.860;13.466;2022-12-05T13:55:19;9.70;99.90
3194;DHT22;1608;50.860;13.466;2022-12-05T13:57:51;9.80;99.90
3194;DHT22;1608;50.860;13.466;2022-12-05T14:00:31;9.90;99.90
3194;DHT22;1608;50.860;13.466;2022-12-05T14:03:00;9.80;99.90
3194;DHT22;1608;50.860;13.466;2022-12-05T14:05:47;9.80;99.90
3194;DHT22;1608;50.860;13.466;2022-12-05T14:08:51;9.80;99.90
3194;DHT22;1608;50.860;13.466;2022-12-05T14:11:19;9.80;99.90
3194;DHT22;1608;50.860;13.466;2022-12-05T14:13:47;9.80;99.90
3194;DHT22;1608;50.860;13.466;2022-12-05T14:16:44;9.90;99.90
3194;DHT22;1608;50.860;13.466;2022-12-05T14:19:34;9.90;99.90
3194;DHT22;1608;50.860;13.466;2022-12-05T14:22:14;9.80;99.90
3194;DHT22;1608;50.860;13.466;2022-12-05T14:24:50;9.80;99.90
3194;DHT22;1608;50.860;13.466;2022-12-05T14:27:32;9.80;99.90
3194;DHT22;1608;50.860;13.466;2022-12-05T14:30:19;9.80;99.90
3194;DHT22;1608;50.860;13.466;2022-12-05T14:32:46;9.70;99.90
3194;DHT22;1608;50.860;13.466;2022-12-05T14:35:15;9.70;99.90
3194;DHT22;1608;50.860;13.466;2022-12-05T14:37:50;9.60;99.90
3194;DHT22;1608;50.860;13.466;2022-12-05T14:40:23;9.60;99.90
3194;DHT22;1608;50.860;13.466;2022-12-05T14:42:53;9.40;99.90
3194;DHT22;1608;50.860;13.466;2022-12-05T14:45:34;9.30;99.90
3194;DHT22;1608;50.860;13.466;2022-12-05T14:48:05;9.30;99.90
3194;DHT22;1608;50.860;13.466;2022-12-05T14:50:49;9.30;99.90
3194;DHT22;1608;50.860;13.466;2022-12-05T14:53:30;9.30;99.90
3194;DHT22;1608;50.860;13.466;2022-12-05T14:56:09;9.20;99.90
3194;DHT22;1608;50.860;13.466;2022-12-05T14:58:42;9.30;99.90
3194;DHT22;1608;50.860;13.466;2022-12-05T15:01:16;9.20;99.90
3194;DHT22;1608;50.860;13.466;2022-12-05T15:03:58;9.20;99.90
3194;DHT22;1608;50.860;13.466;2022-12-05T15:06:27;9.20;99.90
3194;DHT22;1608;50.860;13.466;2022-12-05T15:08:56;9.30;99.90
3194;DHT22;1608;50.860;13.466;2022-12-05T15:11:24;9.30;99.90
3194;DHT22;1608;50.860;13.466;2022-12-05T15:13:57;9.30;99.90
3194;DHT22;1608;50.860;13.466;2022-12-05T15:16:27;9.40;99.90
3194;DHT22;1608;50.860;13.466;2022-12-05T15:18:59;9.40;99.90
3194;DHT22;1608;50.860;13.466;2022-12-05T15:21:32;9.40;99.90
3194;DHT22;1608;50.860;13.466;2022-12-05T15:24:02;7.90;99.90
3194;DHT22;1608;50.860;13.466;2022-12-05T15:26:33;9.40;99.90
3194;DHT22;1608;50.860;13.466;2022-12-05T15:29:06;9.40;99.90
3194;DHT22;1608;50.860;13.466;2022-12-05T15:31:37;9.40;99.90
3194;DHT22;1608;50.860;13.466;2022-12-05T15:34:11;9.30;99.90
3194;DHT22;1608;50.860;13.466;2022-12-05T15:36:43;9.30;99.90
3194;DHT22;1608;50.860;13.466;2022-12-05T15:39:17;9.40;99.90
3194;DHT22;1608;50.860;13.466;2022-12-05T15:41:49;9.40;99.90
3194;DHT22;1608;50.860;13.466;2022-12-05T15:44:17;9.30;99.90
3194;DHT22;1608;50.860;13.466;2022-12-05T15:46:50;9.30;99.90
3194;DHT22;1608;50.860;13.466;2022-12-05T15:49:21;9.30;99.90
3194;DHT22;1608;50.860;13.466;2022-12-05T15:51:51;9.30;99.90
3194;DHT22;1608;50.860;13.466;2022-12-05T15:54:23;9.30;99.90
3194;DHT22;1608;50.860;13.466;2022-12-05T15:56:54;9.30;99.90
3194;DHT22;1608;50.860;13.466;2022-12-05T15:59:29;9.30;99.90
3194;DHT22;1608;50.860;13.466;2022-12-05T16:02:09;9.30;99.90
3194;DHT22;1608;50.860;13.466;2022-12-05T16:04:42;9.30;99.90
3194;DHT22;1608;50.860;13.466;2022-12-05T16:07:10;9.30;99.90
3194;DHT22;1608;50.860;13.466;2022-12-05T16:09:41;9.30;99.90
3194;DHT22;1608;50.860;13.466;2022-12-05T16:12:22;9.30;99.90
3194;DHT22;1608;50.860;13.466;2022-12-05T16:14:52;9.30;99.90
3194;DHT22;1608;50.860;13.466;2022-12-05T16:17:20;9.20;99.90
3194;DHT22;1608;50.860;13.466;2022-12-05T16:19:47;9.20;99.90
3194;DHT22;1608;50.860;13.466;2022-12-05T16:22:21;9.20;99.90
3194;DHT22;1608;50.860;13.466;2022-12-05T16:24:54;9.20;99.90
3194;DHT22;1608;50.860;13.466;2022-12-05T16:27:22;9.10;99.90
3194;DHT22;1608;50.860;13.466;2022-12-05T16:30:05;9.10;99.90
3194;DHT22;1608;50.860;13.466;2022-12-05T16:32:35;9.10;99.90
3194;DHT22;1608;50.860;13.466;2022-12-05T16:35:03;9.10;99.90
3194;DHT22;1608;50.860;13.466;2022-12-05T16:37:30;9.10;99.90
3194;DHT22;1608;50.860;13.466;2022-12-05T16:39:56;9.10;99.90
3194;DHT22;1608;50.860;13.466;2022-12-05T16:42:24;9.10;99.90
3194;DHT22;1608;50.860;13.466;2022-12-05T16:44:54;9.10;99.90